sensor_id;sensor_type;location;lat;lon;timestamp;P1;durP1;ratioP1;P2;durP2;ratioP2
31347;SDS011;21711;49.708;18.568;2024-02-14T00:01:29;21.77;;;10.30;;
31347;SDS011;21711;49.708;18.568;2024-02-14T00:03:56;20.50;;;8.95;;
31347;SDS011;21711;49.708;18.568;2024-02-14T00:06:24;20.77;;;9.60;;
31347;SDS011;21711;49.708;18.568;2024-02-14T00:08:51;23.48;;;10.68;;
31347;SDS011;21711;49.708;18.568;2024-02-14T00:11:19;37.45;;;10.90;;
31347;SDS011;21711;49.708;18.568;2024-02-14T00:13:46;22.90;;;9.75;;
31347;SDS011;21711;49.708;18.568;2024-02-14T00:16:13;20.60;;;9.15;;
31347;SDS011;21711;49.708;18.568;2024-02-14T00:18:41;20.50;;;8.80;;
31347;SDS011;21711;49.708;18.568;2024-02-14T00:21:08;21.65;;;9.38;;
31347;SDS011;21711;49.708;18.568;2024-02-14T00:23:36;19.27;;;8.50;;
31347;SDS011;21711;49.708;18.568;2024-02-14T00:26:03;16.90;;;7.45;;
31347;SDS011;21711;49.708;18.568;2024-02-14T00:28:31;15.02;;;7.93;;
31347;SDS011;21711;49.708;18.568;2024-02-14T00:30:59;17.05;;;8.43;;
31347;SDS011;21711;49.708;18.568;2024-02-14T00:33:26;19.55;;;8.02;;
31347;SDS011;21711;49.708;18.568;2024-02-14T00:35:54;19.23;;;7.80;;
31347;SDS011;21711;49.708;18.568;2024-02-14T00:38:21;29.63;;;12.90;;
31347;SDS011;21711;49.708;18.568;2024-02-14T00:40:49;32.50;;;13.27;;
31347;SDS011;21711;49.708;18.568;2024-02-14T00:43:16;36.38;;;15.32;;
31347;SDS011;21711;49.708;18.568;2024-02-14T00:45:44;32.75;;;13.52;;
31347;SDS011;21711;49.708;18.568;2024-02-14T00:48:12;23.98;;;11.20;;
31347;SDS011;21711;49.708;18.568;2024-02-14T00:50:39;25.95;;;12.38;;
31347;SDS011;21711;49.708;18.568;2024-02-14T00:53:07;27.33;;;11.57;;
31347;SDS011;21711;49.708;18.568;2024-02-14T00:55:34;28.88;;;12.93;;
31347;SDS011;21711;49.708;18.568;2024-02-14T00:58:01;26.00;;;11.43;;
31347;SDS011;21711;49.708;18.568;2024-02-14T01:00:29;24.95;;;10.85;;
31347;SDS011;21711;49.708;18.568;2024-02-14T01:03:01;25.25;;;11.63;;
31347;SDS011;21711;49.708;18.568;2024-02-14T01:05:29;25.75;;;11.20;;
31347;SDS011;21711;49.708;18.568;2024-02-14T01:07:57;26.92;;;11.05;;
31347;SDS011;21711;49.708;18.568;2024-02-14T01:10:24;24.02;;;9.57;;
31347;SDS011;21711;49.708;18.568;2024-02-14T01:12:51;19.55;;;8.95;;
31347;SDS011;21711;49.708;18.568;2024-02-14T01:15:19;25.60;;;9.98;;
31347;SDS011;21711;49.708;18.568;2024-02-14T01:17:46;28.15;;;12.02;;
31347;SDS011;21711;49.708;18.568;2024-02-14T01:20:14;24.35;;;10.65;;
31347;SDS011;21711;49.708;18.568;2024-02-14T01:22:41;31.02;;;11.80;;
31347;SDS011;21711;49.708;18.568;2024-02-14T01:25:09;26.65;;;10.98;;
31347;SDS011;21711;49.708;18.568;2024-02-14T01:27:37;19.95;;;9.38;;
31347;SDS011;21711;49.708;18.568;2024-02-14T01:30:05;21.60;;;9.18;;
31347;SDS011;21711;49.708;18.568;2024-02-14T01:32:33;22.70;;;10.05;;
31347;SDS011;21711;49.708;18.568;2024-02-14T01:35:01;20.77;;;10.00;;
31347;SDS011;21711;49.708;18.568;2024-02-14T01:37:30;26.10;;;10.75;;
31347;SDS011;21711;49.708;18.568;2024-02-14T01:39:57;25.52;;;10.52;;
31347;SDS011;21711;49.708;18.568;2024-02-14T01:42:25;28.70;;;11.90;;
31347;SDS011;21711;49.708;18.568;2024-02-14T01:44:54;23.35;;;10.95;;
31347;SDS011;21711;49.708;18.568;2024-02-14T01:47:21;26.25;;;10.98;;
31347;SDS011;21711;49.708;18.568;2024-02-14T01:49:48;27.35;;;11.13;;
31347;SDS011;21711;49.708;18.568;2024-02-14T01:52:16;24.83;;;11.38;;
31347;SDS011;21711;49.708;18.568;2024-02-14T01:54:43;24.63;;;11.30;;
31347;SDS011;21711;49.708;18.568;2024-02-14T01:57:11;26.58;;;11.65;;
31347;SDS011;21711;49.708;18.568;2024-02-14T01:59:38;24.10;;;11.40;;
31347;SDS011;21711;49.708;18.568;2024-02-14T02:02:06;25.63;;;11.60;;
31347;SDS011;21711;49.708;18.568;2024-02-14T02:04:34;31.98;;;12.88;;
31347;SDS011;21711;49.708;18.568;2024-02-14T02:07:03;30.80;;;12.80;;
31347;SDS011;21711;49.708;18.568;2024-02-14T02:09:31;23.27;;;11.13;;
31347;SDS011;21711;49.708;18.568;2024-02-14T02:11:59;25.50;;;12.07;;
31347;SDS011;21711;49.708;18.568;2024-02-14T02:14:27;28.33;;;12.80;;
31347;SDS011;21711;49.708;18.568;2024-02-14T02:16:56;31.83;;;12.77;;
31347;SDS011;21711;49.708;18.568;2024-02-14T02:19:24;35.07;;;13.43;;
31347;SDS011;21711;49.708;18.568;2024-02-14T02:21:51;31.03;;;12.77;;
31347;SDS011;21711;49.708;18.568;2024-02-14T02:24:18;29.07;;;11.07;;
31347;SDS011;21711;49.708;18.568;2024-02-14T02:26:46;34.05;;;13.77;;
31347;SDS011;21711;49.708;18.568;2024-02-14T02:29:13;28.73;;;11.53;;
31347;SDS011;21711;49.708;18.568;2024-02-14T02:31:42;33.07;;;13.20;;
31347;SDS011;21711;49.708;18.568;2024-02-14T02:34:09;32.20;;;13.10;;
31347;SDS011;21711;49.708;18.568;2024-02-14T02:36:38;32.43;;;13.53;;
31347;SDS011;21711;49.708;18.568;2024-02-14T02:39:07;29.33;;;12.10;;
31347;SDS011;21711;49.708;18.568;2024-02-14T02:41:34;31.07;;;12.40;;
31347;SDS011;21711;49.708;18.568;2024-02-14T02:44:02;33.60;;;11.17;;
31347;SDS011;21711;49.708;18.568;2024-02-14T02:46:29;25.50;;;10.73;;
31347;SDS011;21711;49.708;18.568;2024-02-14T02:48:57;25.00;;;11.10;;
31347;SDS011;21711;49.708;18.568;2024-02-14T02:51:25;28.53;;;10.97;;
31347;SDS011;21711;49.708;18.568;2024-02-14T02:53:54;27.10;;;10.93;;
31347;SDS011;21711;49.708;18.568;2024-02-14T02:56:21;23.33;;;10.27;;
31347;SDS011;21711;49.708;18.568;2024-02-14T02:58:48;20.50;;;9.20;;
31347;SDS011;21711;49.708;18.568;2024-02-14T03:01:16;22.53;;;10.10;;
31347;SDS011;21711;49.708;18.568;2024-02-14T03:03:43;22.60;;;9.77;;
31347;SDS011;21711;49.708;18.568;2024-02-14T03:06:10;22.83;;;9.70;;
31347;SDS011;21711;49.708;18.568;2024-02-14T03:08:39;26.00;;;10.20;;
31347;SDS011;21711;49.708;18.568;2024-02-14T03:11:07;27.23;;;8.47;;
31347;SDS011;21711;49.708;18.568;2024-02-14T03:13:34;22.77;;;9.63;;
31347;SDS011;21711;49.708;18.568;2024-02-14T03:16:03;24.87;;;9.23;;
31347;SDS011;21711;49.708;18.568;2024-02-14T03:18:32;23.67;;;9.20;;
31347;SDS011;21711;49.708;18.568;2024-02-14T03:20:59;22.83;;;9.10;;
31347;SDS011;21711;49.708;18.568;2024-02-14T03:23:27;25.20;;;9.77;;
31347;SDS011;21711;49.708;18.568;2024-02-14T03:25:54;21.67;;;8.87;;
31347;SDS011;21711;49.708;18.568;2024-02-14T03:28:22;20.17;;;8.63;;
31347;SDS011;21711;49.708;18.568;2024-02-14T03:30:50;20.70;;;8.73;;
31347;SDS011;21711;49.708;18.568;2024-02-14T03:33:18;22.73;;;9.10;;
31347;SDS011;21711;49.708;18.568;2024-02-14T03:35:46;24.07;;;8.97;;
31347;SDS011;21711;49.708;18.568;2024-02-14T03:38:24;21.77;;;7.97;;
31347;SDS011;21711;49.708;18.568;2024-02-14T03:40:53;20.57;;;9.00;;
31347;SDS011;21711;49.708;18.568;2024-02-14T03:43:21;21.97;;;8.63;;
31347;SDS011;21711;49.708;18.568;2024-02-14T03:45:50;24.50;;;8.97;;
31347;SDS011;21711;49.708;18.568;2024-02-14T03:48:21;23.77;;;9.47;;
31347;SDS011;21711;49.708;18.568;2024-02-14T03:50:48;21.77;;;9.30;;
31347;SDS011;21711;49.708;18.568;2024-02-14T03:53:16;24.77;;;9.10;;
31347;SDS011;21711;49.708;18.568;2024-02-14T03:55:43;22.50;;;9.03;;
31347;SDS011;21711;49.708;18.568;2024-02-14T03:58:11;19.87;;;8.73;;
31347;SDS011;21711;49.708;18.568;2024-02-14T04:00:40;23.37;;;8.90;;
31347;SDS011;21711;49.708;18.568;2024-02-14T04:03:08;27.67;;;8.67;;
31347;SDS011;21711;49.708;18.568;2024-02-14T04:05:39;18.17;;;7.97;;
31347;SDS011;21711;49.708;18.568;2024-02-14T04:08:06;17.93;;;7.87;;
31347;SDS011;21711;49.708;18.568;2024-02-14T04:10:36;16.05;;;6.55;;
31347;SDS011;21711;49.708;18.568;2024-02-14T04:13:04;14.20;;;6.80;;
31347;SDS011;21711;49.708;18.568;2024-02-14T04:15:32;15.40;;;7.30;;
31347;SDS011;21711;49.708;18.568;2024-02-14T04:17:59;16.07;;;6.20;;
31347;SDS011;21711;49.708;18.568;2024-02-14T04:20:33;16.13;;;6.83;;
31347;SDS011;21711;49.708;18.568;2024-02-14T04:23:00;16.53;;;6.07;;
31347;SDS011;21711;49.708;18.568;2024-02-14T04:25:28;18.13;;;7.50;;
31347;SDS011;21711;49.708;18.568;2024-02-14T04:27:55;18.10;;;7.07;;
31347;SDS011;21711;49.708;18.568;2024-02-14T04:30:22;12.50;;;6.40;;
31347;SDS011;21711;49.708;18.568;2024-02-14T04:32:50;18.57;;;7.03;;
31347;SDS011;21711;49.708;18.568;2024-02-14T04:35:21;17.03;;;6.07;;
31347;SDS011;21711;49.708;18.568;2024-02-14T04:37:49;15.95;;;6.78;;
31347;SDS011;21711;49.708;18.568;2024-02-14T04:40:18;15.23;;;6.03;;
31347;SDS011;21711;49.708;18.568;2024-02-14T04:42:46;16.83;;;7.20;;
31347;SDS011;21711;49.708;18.568;2024-02-14T04:45:13;14.03;;;5.67;;
31347;SDS011;21711;49.708;18.568;2024-02-14T04:47:41;13.60;;;5.73;;
31347;SDS011;21711;49.708;18.568;2024-02-14T04:50:09;11.10;;;5.47;;
31347;SDS011;21711;49.708;18.568;2024-02-14T04:52:36;14.13;;;5.83;;
31347;SDS011;21711;49.708;18.568;2024-02-14T04:55:04;10.93;;;5.30;;
31347;SDS011;21711;49.708;18.568;2024-02-14T04:57:32;16.90;;;5.53;;
31347;SDS011;21711;49.708;18.568;2024-02-14T05:00:02;11.57;;;5.80;;
31347;SDS011;21711;49.708;18.568;2024-02-14T05:02:32;15.68;;;5.18;;
31347;SDS011;21711;49.708;18.568;2024-02-14T05:05:00;13.30;;;5.13;;
31347;SDS011;21711;49.708;18.568;2024-02-14T05:07:28;9.53;;;4.37;;
31347;SDS011;21711;49.708;18.568;2024-02-14T05:09:55;13.47;;;5.10;;
31347;SDS011;21711;49.708;18.568;2024-02-14T05:12:23;14.10;;;5.53;;
31347;SDS011;21711;49.708;18.568;2024-02-14T05:14:50;11.27;;;4.50;;
31347;SDS011;21711;49.708;18.568;2024-02-14T05:17:17;10.53;;;5.40;;
31347;SDS011;21711;49.708;18.568;2024-02-14T05:19:45;12.03;;;4.03;;
31347;SDS011;21711;49.708;18.568;2024-02-14T05:22:12;16.13;;;5.17;;
31347;SDS011;21711;49.708;18.568;2024-02-14T05:24:40;13.33;;;5.70;;
31347;SDS011;21711;49.708;18.568;2024-02-14T05:27:07;15.40;;;6.53;;
31347;SDS011;21711;49.708;18.568;2024-02-14T05:29:34;17.07;;;6.60;;
31347;SDS011;21711;49.708;18.568;2024-02-14T05:32:02;18.47;;;6.97;;
31347;SDS011;21711;49.708;18.568;2024-02-14T05:34:30;19.83;;;7.33;;
31347;SDS011;21711;49.708;18.568;2024-02-14T05:36:58;14.10;;;6.40;;
31347;SDS011;21711;49.708;18.568;2024-02-14T05:39:25;11.80;;;5.33;;
31347;SDS011;21711;49.708;18.568;2024-02-14T05:41:52;16.77;;;6.03;;
31347;SDS011;21711;49.708;18.568;2024-02-14T05:44:20;18.33;;;6.90;;
31347;SDS011;21711;49.708;18.568;2024-02-14T05:46:49;16.90;;;6.57;;
31347;SDS011;21711;49.708;18.568;2024-02-14T05:49:16;19.73;;;7.17;;
31347;SDS011;21711;49.708;18.568;2024-02-14T05:51:44;19.83;;;6.93;;
31347;SDS011;21711;49.708;18.568;2024-02-14T05:54:11;20.50;;;6.37;;
31347;SDS011;21711;49.708;18.568;2024-02-14T05:56:39;23.33;;;7.27;;
31347;SDS011;21711;49.708;18.568;2024-02-14T05:59:06;17.57;;;6.83;;
31347;SDS011;21711;49.708;18.568;2024-02-14T06:01:34;20.57;;;6.20;;
31347;SDS011;21711;49.708;18.568;2024-02-14T06:04:02;12.40;;;5.03;;
31347;SDS011;21711;49.708;18.568;2024-02-14T06:06:29;14.43;;;5.80;;
31347;SDS011;21711;49.708;18.568;2024-02-14T06:08:57;17.40;;;6.40;;
31347;SDS011;21711;49.708;18.568;2024-02-14T06:11:25;14.77;;;5.43;;
31347;SDS011;21711;49.708;18.568;2024-02-14T06:13:52;13.90;;;6.17;;
31347;SDS011;21711;49.708;18.568;2024-02-14T06:16:19;12.57;;;5.03;;
31347;SDS011;21711;49.708;18.568;2024-02-14T06:18:47;15.40;;;6.60;;
31347;SDS011;21711;49.708;18.568;2024-02-14T06:21:14;17.57;;;6.07;;
31347;SDS011;21711;49.708;18.568;2024-02-14T06:23:42;15.27;;;5.43;;
31347;SDS011;21711;49.708;18.568;2024-02-14T06:26:11;13.80;;;6.00;;
31347;SDS011;21711;49.708;18.568;2024-02-14T06:28:38;12.87;;;5.40;;
31347;SDS011;21711;49.708;18.568;2024-02-14T06:31:06;11.53;;;4.90;;
31347;SDS011;21711;49.708;18.568;2024-02-14T06:33:33;15.43;;;5.00;;
31347;SDS011;21711;49.708;18.568;2024-02-14T06:36:02;14.57;;;5.00;;
31347;SDS011;21711;49.708;18.568;2024-02-14T06:38:33;13.30;;;5.07;;
31347;SDS011;21711;49.708;18.568;2024-02-14T06:41:00;16.85;;;5.38;;
31347;SDS011;21711;49.708;18.568;2024-02-14T06:43:28;11.17;;;4.80;;
31347;SDS011;21711;49.708;18.568;2024-02-14T06:45:55;10.07;;;4.13;;
31347;SDS011;21711;49.708;18.568;2024-02-14T06:48:23;11.97;;;5.53;;
31347;SDS011;21711;49.708;18.568;2024-02-14T06:50:51;10.13;;;5.03;;
31347;SDS011;21711;49.708;18.568;2024-02-14T06:53:18;15.23;;;4.73;;
31347;SDS011;21711;49.708;18.568;2024-02-14T06:55:46;13.63;;;4.77;;
31347;SDS011;21711;49.708;18.568;2024-02-14T06:58:13;18.00;;;4.78;;
31347;SDS011;21711;49.708;18.568;2024-02-14T07:00:41;15.18;;;5.35;;
31347;SDS011;21711;49.708;18.568;2024-02-14T07:03:08;14.73;;;5.87;;
31347;SDS011;21711;49.708;18.568;2024-02-14T07:05:36;11.23;;;4.93;;
31347;SDS011;21711;49.708;18.568;2024-02-14T07:08:04;12.80;;;5.25;;
31347;SDS011;21711;49.708;18.568;2024-02-14T07:10:31;18.87;;;5.67;;
31347;SDS011;21711;49.708;18.568;2024-02-14T07:12:59;13.90;;;5.80;;
31347;SDS011;21711;49.708;18.568;2024-02-14T07:15:27;10.05;;;4.82;;
31347;SDS011;21711;49.708;18.568;2024-02-14T07:17:55;18.60;;;6.07;;
31347;SDS011;21711;49.708;18.568;2024-02-14T07:20:24;14.07;;;5.20;;
31347;SDS011;21711;49.708;18.568;2024-02-14T07:22:55;11.57;;;4.93;;
31347;SDS011;21711;49.708;18.568;2024-02-14T07:25:23;17.02;;;5.35;;
31347;SDS011;21711;49.708;18.568;2024-02-14T07:27:51;8.18;;;4.78;;
31347;SDS011;21711;49.708;18.568;2024-02-14T07:30:18;10.68;;;4.18;;
31347;SDS011;21711;49.708;18.568;2024-02-14T07:32:45;10.07;;;4.45;;
31347;SDS011;21711;49.708;18.568;2024-02-14T07:35:13;10.65;;;4.05;;
31347;SDS011;21711;49.708;18.568;2024-02-14T07:37:41;11.98;;;3.95;;
31347;SDS011;21711;49.708;18.568;2024-02-14T07:40:09;8.23;;;3.80;;
31347;SDS011;21711;49.708;18.568;2024-02-14T07:42:39;7.80;;;3.63;;
31347;SDS011;21711;49.708;18.568;2024-02-14T07:45:06;12.05;;;3.67;;
31347;SDS011;21711;49.708;18.568;2024-02-14T07:47:33;8.85;;;3.35;;
31347;SDS011;21711;49.708;18.568;2024-02-14T07:50:01;7.63;;;3.58;;
31347;SDS011;21711;49.708;18.568;2024-02-14T07:52:29;11.15;;;3.60;;
31347;SDS011;21711;49.708;18.568;2024-02-14T07:55:01;8.30;;;3.78;;
31347;SDS011;21711;49.708;18.568;2024-02-14T07:57:28;7.90;;;3.80;;
31347;SDS011;21711;49.708;18.568;2024-02-14T07:59:55;9.05;;;3.72;;
31347;SDS011;21711;49.708;18.568;2024-02-14T08:02:23;8.30;;;3.63;;
31347;SDS011;21711;49.708;18.568;2024-02-14T08:04:50;8.20;;;3.90;;
31347;SDS011;21711;49.708;18.568;2024-02-14T08:07:18;6.00;;;3.65;;
31347;SDS011;21711;49.708;18.568;2024-02-14T08:09:46;8.05;;;3.85;;
31347;SDS011;21711;49.708;18.568;2024-02-14T08:12:13;9.10;;;4.43;;
31347;SDS011;21711;49.708;18.568;2024-02-14T08:14:40;11.23;;;5.18;;
31347;SDS011;21711;49.708;18.568;2024-02-14T08:17:08;9.52;;;4.53;;
31347;SDS011;21711;49.708;18.568;2024-02-14T08:19:35;8.20;;;4.60;;
31347;SDS011;21711;49.708;18.568;2024-02-14T08:22:03;8.75;;;4.68;;
31347;SDS011;21711;49.708;18.568;2024-02-14T08:24:32;7.60;;;4.75;;
31347;SDS011;21711;49.708;18.568;2024-02-14T08:26:59;11.55;;;5.68;;
31347;SDS011;21711;49.708;18.568;2024-02-14T08:29:27;9.68;;;5.10;;
31347;SDS011;21711;49.708;18.568;2024-02-14T08:31:55;8.27;;;5.00;;
31347;SDS011;21711;49.708;18.568;2024-02-14T08:34:23;9.35;;;5.20;;
31347;SDS011;21711;49.708;18.568;2024-02-14T08:36:50;11.43;;;4.80;;
31347;SDS011;21711;49.708;18.568;2024-02-14T08:39:18;8.07;;;4.63;;
31347;SDS011;21711;49.708;18.568;2024-02-14T08:41:46;9.13;;;5.20;;
31347;SDS011;21711;49.708;18.568;2024-02-14T08:44:13;7.50;;;5.30;;
31347;SDS011;21711;49.708;18.568;2024-02-14T08:46:41;7.35;;;5.38;;
31347;SDS011;21711;49.708;18.568;2024-02-14T08:49:11;8.05;;;5.20;;
31347;SDS011;21711;49.708;18.568;2024-02-14T08:51:39;8.98;;;5.20;;
31347;SDS011;21711;49.708;18.568;2024-02-14T08:54:06;7.65;;;3.85;;
31347;SDS011;21711;49.708;18.568;2024-02-14T08:56:34;5.55;;;4.03;;
31347;SDS011;21711;49.708;18.568;2024-02-14T08:59:01;6.85;;;4.72;;
31347;SDS011;21711;49.708;18.568;2024-02-14T09:01:30;5.32;;;4.38;;
31347;SDS011;21711;49.708;18.568;2024-02-14T09:03:57;6.97;;;5.00;;
31347;SDS011;21711;49.708;18.568;2024-02-14T09:06:25;8.70;;;5.22;;
31347;SDS011;21711;49.708;18.568;2024-02-14T09:08:53;8.63;;;4.43;;
31347;SDS011;21711;49.708;18.568;2024-02-14T09:11:21;9.30;;;5.32;;
31347;SDS011;21711;49.708;18.568;2024-02-14T09:13:49;7.28;;;5.32;;
31347;SDS011;21711;49.708;18.568;2024-02-14T09:16:20;6.47;;;5.15;;
31347;SDS011;21711;49.708;18.568;2024-02-14T09:18:49;7.80;;;4.50;;
31347;SDS011;21711;49.708;18.568;2024-02-14T09:21:17;5.95;;;4.50;;
31347;SDS011;21711;49.708;18.568;2024-02-14T09:23:47;5.43;;;4.25;;
31347;SDS011;21711;49.708;18.568;2024-02-14T09:26:14;5.50;;;3.70;;
31347;SDS011;21711;49.708;18.568;2024-02-14T09:28:45;6.57;;;3.95;;
31347;SDS011;21711;49.708;18.568;2024-02-14T09:31:12;5.78;;;3.83;;
31347;SDS011;21711;49.708;18.568;2024-02-14T09:33:44;8.93;;;4.40;;
31347;SDS011;21711;49.708;18.568;2024-02-14T09:36:15;5.28;;;3.72;;
31347;SDS011;21711;49.708;18.568;2024-02-14T09:38:42;4.63;;;3.42;;
31347;SDS011;21711;49.708;18.568;2024-02-14T09:43:46;7.85;;;3.10;;
31347;SDS011;21711;49.708;18.568;2024-02-14T09:46:13;7.82;;;3.15;;
31347;SDS011;21711;49.708;18.568;2024-02-14T09:48:45;4.30;;;3.00;;
31347;SDS011;21711;49.708;18.568;2024-02-14T09:51:13;4.53;;;3.22;;
31347;SDS011;21711;49.708;18.568;2024-02-14T09:53:41;4.07;;;2.90;;
31347;SDS011;21711;49.708;18.568;2024-02-14T09:56:10;4.82;;;2.70;;
31347;SDS011;21711;49.708;18.568;2024-02-14T09:58:40;4.68;;;3.00;;
31347;SDS011;21711;49.708;18.568;2024-02-14T10:01:07;7.43;;;3.20;;
31347;SDS011;21711;49.708;18.568;2024-02-14T10:03:35;3.95;;;2.72;;
31347;SDS011;21711;49.708;18.568;2024-02-14T10:06:03;5.60;;;3.65;;
31347;SDS011;21711;49.708;18.568;2024-02-14T10:08:31;4.75;;;3.20;;
31347;SDS011;21711;49.708;18.568;2024-02-14T10:10:59;4.40;;;3.33;;
31347;SDS011;21711;49.708;18.568;2024-02-14T10:13:27;5.35;;;3.33;;
31347;SDS011;21711;49.708;18.568;2024-02-14T10:15:55;5.25;;;3.35;;
31347;SDS011;21711;49.708;18.568;2024-02-14T10:18:23;5.80;;;3.60;;
31347;SDS011;21711;49.708;18.568;2024-02-14T10:20:57;6.03;;;3.58;;
31347;SDS011;21711;49.708;18.568;2024-02-14T10:23:26;5.60;;;3.75;;
31347;SDS011;21711;49.708;18.568;2024-02-14T10:25:54;7.87;;;4.23;;
31347;SDS011;21711;49.708;18.568;2024-02-14T10:28:22;5.97;;;3.90;;
31347;SDS011;21711;49.708;18.568;2024-02-14T10:31:02;8.27;;;3.58;;
31347;SDS011;21711;49.708;18.568;2024-02-14T10:33:32;3.50;;;2.20;;
31347;SDS011;21711;49.708;18.568;2024-02-14T10:35:59;3.67;;;2.22;;
31347;SDS011;21711;49.708;18.568;2024-02-14T10:38:32;5.50;;;2.03;;
31347;SDS011;21711;49.708;18.568;2024-02-14T10:41:00;3.45;;;2.20;;
31347;SDS011;21711;49.708;18.568;2024-02-14T10:43:29;4.68;;;2.45;;
31347;SDS011;21711;49.708;18.568;2024-02-14T10:46:00;5.50;;;2.45;;
31347;SDS011;21711;49.708;18.568;2024-02-14T10:48:41;6.20;;;2.28;;
31347;SDS011;21711;49.708;18.568;2024-02-14T10:51:09;4.57;;;2.08;;
31347;SDS011;21711;49.708;18.568;2024-02-14T10:53:43;7.07;;;2.13;;
31347;SDS011;21711;49.708;18.568;2024-02-14T10:58:46;5.07;;;2.33;;
31347;SDS011;21711;49.708;18.568;2024-02-14T11:01:15;5.50;;;2.33;;
31347;SDS011;21711;49.708;18.568;2024-02-14T11:03:44;3.22;;;2.00;;
31347;SDS011;21711;49.708;18.568;2024-02-14T11:06:15;4.32;;;1.95;;
31347;SDS011;21711;49.708;18.568;2024-02-14T11:09:03;2.50;;;1.90;;
31347;SDS011;21711;49.708;18.568;2024-02-14T11:11:39;2.38;;;1.35;;
31347;SDS011;21711;49.708;18.568;2024-02-14T11:14:07;3.13;;;1.77;;
31347;SDS011;21711;49.708;18.568;2024-02-14T11:16:36;2.45;;;1.23;;
31347;SDS011;21711;49.708;18.568;2024-02-14T11:19:08;5.30;;;1.65;;
31347;SDS011;21711;49.708;18.568;2024-02-14T11:21:44;3.58;;;1.50;;
31347;SDS011;21711;49.708;18.568;2024-02-14T11:24:15;3.25;;;1.40;;
31347;SDS011;21711;49.708;18.568;2024-02-14T11:26:50;6.15;;;1.65;;
31347;SDS011;21711;49.708;18.568;2024-02-14T11:29:19;6.07;;;1.75;;
31347;SDS011;21711;49.708;18.568;2024-02-14T11:32:00;5.78;;;2.17;;
31347;SDS011;21711;49.708;18.568;2024-02-14T11:34:32;2.53;;;1.35;;
31347;SDS011;21711;49.708;18.568;2024-02-14T11:37:04;3.15;;;1.70;;
31347;SDS011;21711;49.708;18.568;2024-02-14T11:39:34;3.88;;;1.67;;
31347;SDS011;21711;49.708;18.568;2024-02-14T11:42:03;4.10;;;1.48;;
31347;SDS011;21711;49.708;18.568;2024-02-14T11:44:31;6.97;;;2.28;;
31347;SDS011;21711;49.708;18.568;2024-02-14T11:46:59;3.72;;;1.75;;
31347;SDS011;21711;49.708;18.568;2024-02-14T11:49:27;3.15;;;1.23;;
31347;SDS011;21711;49.708;18.568;2024-02-14T11:51:55;2.47;;;1.00;;
31347;SDS011;21711;49.708;18.568;2024-02-14T11:54:23;3.15;;;1.30;;
31347;SDS011;21711;49.708;18.568;2024-02-14T11:56:51;6.53;;;1.30;;
31347;SDS011;21711;49.708;18.568;2024-02-14T11:59:18;4.32;;;1.98;;
31347;SDS011;21711;49.708;18.568;2024-02-14T12:01:46;3.30;;;1.70;;
31347;SDS011;21711;49.708;18.568;2024-02-14T12:04:15;3.47;;;1.50;;
31347;SDS011;21711;49.708;18.568;2024-02-14T12:06:44;3.45;;;1.58;;
31347;SDS011;21711;49.708;18.568;2024-02-14T12:09:11;6.68;;;1.58;;
31347;SDS011;21711;49.708;18.568;2024-02-14T12:11:40;4.22;;;1.60;;
31347;SDS011;21711;49.708;18.568;2024-02-14T12:14:12;2.53;;;1.65;;
31347;SDS011;21711;49.708;18.568;2024-02-14T12:16:41;4.07;;;1.48;;
31347;SDS011;21711;49.708;18.568;2024-02-14T12:19:09;3.40;;;1.15;;
31347;SDS011;21711;49.708;18.568;2024-02-14T12:21:43;3.95;;;1.70;;
31347;SDS011;21711;49.708;18.568;2024-02-14T12:24:11;4.00;;;1.60;;
31347;SDS011;21711;49.708;18.568;2024-02-14T12:26:41;2.20;;;1.50;;
31347;SDS011;21711;49.708;18.568;2024-02-14T12:29:12;3.67;;;1.67;;
31347;SDS011;21711;49.708;18.568;2024-02-14T12:31:40;6.13;;;1.60;;
31347;SDS011;21711;49.708;18.568;2024-02-14T12:34:11;3.10;;;1.35;;
31347;SDS011;21711;49.708;18.568;2024-02-14T12:36:40;2.67;;;1.52;;
31347;SDS011;21711;49.708;18.568;2024-02-14T12:39:07;4.55;;;1.42;;
31347;SDS011;21711;49.708;18.568;2024-02-14T12:41:39;4.28;;;1.20;;
31347;SDS011;21711;49.708;18.568;2024-02-14T12:44:07;2.90;;;1.60;;
31347;SDS011;21711;49.708;18.568;2024-02-14T12:46:35;4.20;;;1.40;;
31347;SDS011;21711;49.708;18.568;2024-02-14T12:49:05;4.18;;;1.48;;
31347;SDS011;21711;49.708;18.568;2024-02-14T12:51:33;2.67;;;1.58;;
31347;SDS011;21711;49.708;18.568;2024-02-14T12:54:02;4.15;;;1.70;;
31347;SDS011;21711;49.708;18.568;2024-02-14T12:56:31;5.15;;;1.65;;
31347;SDS011;21711;49.708;18.568;2024-02-14T12:59:00;4.47;;;1.52;;
31347;SDS011;21711;49.708;18.568;2024-02-14T13:01:28;3.63;;;1.42;;
31347;SDS011;21711;49.708;18.568;2024-02-14T13:03:56;3.42;;;1.48;;
31347;SDS011;21711;49.708;18.568;2024-02-14T13:06:24;2.97;;;1.42;;
31347;SDS011;21711;49.708;18.568;2024-02-14T13:08:51;3.00;;;1.33;;
31347;SDS011;21711;49.708;18.568;2024-02-14T13:11:18;5.80;;;1.65;;
31347;SDS011;21711;49.708;18.568;2024-02-14T13:13:46;3.20;;;1.23;;
31347;SDS011;21711;49.708;18.568;2024-02-14T13:16:14;2.92;;;1.60;;
31347;SDS011;21711;49.708;18.568;2024-02-14T13:18:41;4.07;;;1.35;;
31347;SDS011;21711;49.708;18.568;2024-02-14T13:21:09;3.08;;;1.50;;
31347;SDS011;21711;49.708;18.568;2024-02-14T13:23:36;2.92;;;1.58;;
31347;SDS011;21711;49.708;18.568;2024-02-14T13:26:04;5.60;;;1.67;;
31347;SDS011;21711;49.708;18.568;2024-02-14T13:28:31;3.90;;;1.55;;
31347;SDS011;21711;49.708;18.568;2024-02-14T13:30:58;4.53;;;1.63;;
31347;SDS011;21711;49.708;18.568;2024-02-14T13:33:26;2.35;;;1.40;;
31347;SDS011;21711;49.708;18.568;2024-02-14T13:35:54;4.50;;;1.83;;
31347;SDS011;21711;49.708;18.568;2024-02-14T13:38:21;4.25;;;2.00;;
31347;SDS011;21711;49.708;18.568;2024-02-14T13:40:48;2.97;;;1.50;;
31347;SDS011;21711;49.708;18.568;2024-02-14T13:43:16;3.40;;;1.55;;
31347;SDS011;21711;49.708;18.568;2024-02-14T13:45:44;5.80;;;1.88;;
31347;SDS011;21711;49.708;18.568;2024-02-14T13:48:14;3.25;;;1.70;;
31347;SDS011;21711;49.708;18.568;2024-02-14T13:50:42;4.03;;;1.95;;
31347;SDS011;21711;49.708;18.568;2024-02-14T13:53:10;4.35;;;1.90;;
31347;SDS011;21711;49.708;18.568;2024-02-14T13:55:38;5.25;;;1.75;;
31347;SDS011;21711;49.708;18.568;2024-02-14T13:58:06;3.50;;;1.30;;
31347;SDS011;21711;49.708;18.568;2024-02-14T14:00:41;2.92;;;1.25;;
31347;SDS011;21711;49.708;18.568;2024-02-14T14:03:09;5.85;;;1.45;;
31347;SDS011;21711;49.708;18.568;2024-02-14T14:05:38;5.75;;;1.45;;
31347;SDS011;21711;49.708;18.568;2024-02-14T14:08:06;5.60;;;1.27;;
31347;SDS011;21711;49.708;18.568;2024-02-14T14:10:33;4.50;;;1.65;;
31347;SDS011;21711;49.708;18.568;2024-02-14T14:13:01;4.85;;;1.73;;
31347;SDS011;21711;49.708;18.568;2024-02-14T14:15:29;4.63;;;1.15;;
31347;SDS011;21711;49.708;18.568;2024-02-14T14:17:59;4.70;;;1.20;;
31347;SDS011;21711;49.708;18.568;2024-02-14T14:20:27;5.50;;;2.22;;
31347;SDS011;21711;49.708;18.568;2024-02-14T14:22:54;7.82;;;1.30;;
31347;SDS011;21711;49.708;18.568;2024-02-14T14:25:22;4.15;;;1.10;;
31347;SDS011;21711;49.708;18.568;2024-02-14T14:27:50;2.97;;;1.10;;
31347;SDS011;21711;49.708;18.568;2024-02-14T14:30:17;4.10;;;1.23;;
31347;SDS011;21711;49.708;18.568;2024-02-14T14:32:45;6.80;;;1.48;;
31347;SDS011;21711;49.708;18.568;2024-02-14T14:35:12;2.63;;;1.13;;
31347;SDS011;21711;49.708;18.568;2024-02-14T14:37:40;7.78;;;1.55;;